Time;durP1;ratioP1;P1;durP2;ratioP2;P2;SDS_P1;SDS_P2;PMS_P1;PMS_P2;Temp;Humidity;BMP_temperature;BMP_pressure;BME280_temperature;BME280_humidity;BME280_pressure;Samples;Min_cycle;Max_cycle;Signal;HPM_P1;HPM_P2
2021/10/19 00:02:17;;;;;;;28.30;9.07;;;8.80;99.90;;;;;;5013230;28;20105;-78
2021/10/19 00:04:43;;;;;;;23.65;9.20;;;8.80;99.90;;;;;;5017076;28;20076;-83
2021/10/19 00:07:08;;;;;;;23.58;9.05;;;8.80;99.90;;;;;;5016148;28;20029;-83
2021/10/19 00:09:34;;;;;;;22.80;9.52;;;8.80;99.90;;;;;;5017173;28;20370;-82
2021/10/19 00:12:00;;;;;;;22.13;9.52;;;8.80;99.90;;;;;;5017458;28;20060;-82
2021/10/19 00:14:25;;;;;;;24.90;10.05;;;8.90;99.90;;;;;;5016372;28;20034;-82
2021/10/19 00:16:51;;;;;;;23.17;9.40;;;8.80;99.90;;;;;;5016221;28;20021;-83
2021/10/19 00:19:17;;;;;;;25.70;10.45;;;8.80;99.90;;;;;;5016401;28;20030;-81
2021/10/19 00:21:43;;;;;;;25.77;9.95;;;8.90;99.90;;;;;;5015815;28;20525;-84
2021/10/19 00:24:08;;;;;;;21.85;9.90;;;8.90;99.90;;;;;;5017444;28;20089;-84
2021/10/19 00:26:34;;;;;;;26.55;9.10;;;8.90;99.90;;;;;;5015503;28;20033;-83
2021/10/19 00:28:59;;;;;;;20.13;9.07;;;8.80;99.90;;;;;;5017210;28;20072;-82
2021/10/19 00:31:25;;;;;;;28.38;9.30;;;8.90;99.90;;;;;;5043638;28;20079;-82
2021/10/19 00:33:51;;;;;;;25.00;9.70;;;8.80;99.90;;;;;;5036625;28;20462;-82
2021/10/19 00:36:16;;;;;;;22.45;10.20;;;8.80;99.90;;;;;;5037387;28;20028;-81
2021/10/19 00:38:42;;;;;;;23.83;9.30;;;8.80;99.90;;;;;;5035900;28;20376;-82
2021/10/19 00:41:07;;;;;;;23.75;9.45;;;8.90;99.90;;;;;;5037393;28;20025;-82
2021/10/19 00:43:33;;;;;;;20.52;9.05;;;8.90;99.90;;;;;;5035573;28;20458;-82
2021/10/19 00:45:59;;;;;;;20.65;9.60;;;8.90;99.90;;;;;;5037338;28;20025;-83
2021/10/19 00:48:26;;;;;;;20.42;8.80;;;8.90;99.90;;;;;;5027800;28;20486;-82
2021/10/19 00:50:53;;;;;;;21.55;9.45;;;8.80;99.90;;;;;;5016417;28;20029;-82
2021/10/19 00:53:19;;;;;;;19.08;8.63;;;8.80;99.90;;;;;;5017964;28;20056;-82
2021/10/19 00:55:45;;;;;;;18.63;8.40;;;8.80;99.90;;;;;;5016803;28;20130;-82
2021/10/19 00:58:12;;;;;;;22.58;8.50;;;8.90;99.90;;;;;;5015806;28;20453;-82
2021/10/19 01:00:37;;;;;;;21.63;9.20;;;8.90;99.90;;;;;;5021962;28;20091;-82
2021/10/19 01:03:04;;;;;;;25.92;9.32;;;8.90;99.90;;;;;;5028626;28;20459;-82
2021/10/19 01:05:30;;;;;;;23.33;10.05;;;8.90;99.90;;;;;;5016899;28;20018;-81
2021/10/19 01:07:56;;;;;;;26.70;9.57;;;8.90;99.90;;;;;;5032335;28;20450;-81
2021/10/19 01:10:22;;;;;;;22.23;9.55;;;8.90;99.90;;;;;;5015725;28;20029;-81
2021/10/19 01:12:48;;;;;;;25.15;10.43;;;8.90;99.90;;;;;;5015423;28;20451;-82
2021/10/19 01:15:17;;;;;;;25.33;9.23;;;8.90;99.90;;;;;;5031107;28;20018;-82
2021/10/19 01:17:47;;;;;;;22.30;9.80;;;8.90;99.90;;;;;;5015343;28;20030;-83
2021/10/19 01:20:28;;;;;;;24.95;9.63;;;8.90;99.90;;;;;;5015577;28;20443;-83
2021/10/19 01:22:56;;;;;;;38.78;10.93;;;8.90;99.90;;;;;;5015563;28;20117;-82
2021/10/19 01:25:24;;;;;;;25.60;10.05;;;8.90;99.90;;;;;;5016625;28;20022;-81
2021/10/19 01:27:52;;;;;;;22.83;10.52;;;8.90;99.90;;;;;;5016081;28;20478;-81
2021/10/19 01:30:18;;;;;;;29.23;10.50;;;8.90;99.90;;;;;;5031978;28;20022;-81
2021/10/19 01:32:44;;;;;;;25.85;10.60;;;8.80;99.90;;;;;;5015634;28;20452;-81
2021/10/19 01:35:10;;;;;;;32.40;10.20;;;8.80;99.90;;;;;;5016412;28;20049;-81
2021/10/19 01:37:37;;;;;;;30.75;10.25;;;8.80;99.90;;;;;;5030893;28;20022;-81
2021/10/19 01:40:07;;;;;;;21.48;9.15;;;8.90;99.90;;;;;;5031505;28;20028;-81
2021/10/19 01:42:34;;;;;;;27.83;10.50;;;8.90;99.90;;;;;;5015136;28;20028;-87
2021/10/19 01:45:00;;;;;;;25.45;10.35;;;9.00;99.90;;;;;;5031415;28;20463;-81
2021/10/19 01:47:26;;;;;;;26.13;10.68;;;9.00;99.90;;;;;;5031551;28;20033;-81
2021/10/19 01:49:52;;;;;;;27.33;10.45;;;9.00;99.90;;;;;;5015685;28;20018;-81
2021/10/19 01:52:17;;;;;;;24.33;10.32;;;9.00;99.90;;;;;;5031514;28;20022;-81
2021/10/19 01:54:43;;;;;;;26.60;10.57;;;9.00;99.90;;;;;;5030747;28;20050;-81
2021/10/19 01:57:08;;;;;;;26.17;10.45;;;9.00;99.90;;;;;;5015806;28;20463;-80
2021/10/19 01:59:34;;;;;;;27.02;10.68;;;9.00;99.90;;;;;;5014376;28;20041;-85
2021/10/19 02:02:00;;;;;;;24.65;10.00;;;8.90;99.90;;;;;;5015062;28;20018;-81
2021/10/19 02:04:25;;;;;;;25.50;10.70;;;8.90;99.90;;;;;;5015985;28;20029;-82
2021/10/19 02:06:51;;;;;;;24.63;10.90;;;9.00;99.90;;;;;;5031046;28;20529;-82
2021/10/19 02:09:16;;;;;;;24.75;10.90;;;9.00;99.90;;;;;;5015599;28;20052;-81
2021/10/19 02:11:42;;;;;;;31.10;10.93;;;9.00;99.90;;;;;;5030972;28;20049;-82
2021/10/19 02:14:08;;;;;;;27.65;10.82;;;9.00;99.90;;;;;;5014532;28;20018;-82
2021/10/19 02:16:33;;;;;;;27.70;10.43;;;9.00;99.90;;;;;;5031166;28;20033;-82
2021/10/19 02:18:59;;;;;;;24.33;10.18;;;9.00;99.90;;;;;;5030620;28;20033;-82
2021/10/19 02:21:24;;;;;;;27.88;10.98;;;9.00;99.90;;;;;;5015577;28;20017;-82
2021/10/19 02:23:50;;;;;;;23.85;9.63;;;9.10;99.90;;;;;;5014275;28;20053;-81
2021/10/19 02:26:15;;;;;;;22.08;10.18;;;9.00;99.90;;;;;;5013972;28;20068;-82
2021/10/19 02:28:41;;;;;;;20.83;8.95;;;9.00;99.90;;;;;;5030506;28;20130;-82
2021/10/19 02:31:07;;;;;;;22.58;9.98;;;9.00;99.90;;;;;;5014389;28;20053;-82
2021/10/19 02:33:33;;;;;;;22.13;9.60;;;9.00;99.90;;;;;;5014415;28;20029;-83
2021/10/19 02:35:59;;;;;;;19.38;8.77;;;9.10;99.90;;;;;;5013676;28;20026;-82
2021/10/19 02:38:24;;;;;;;22.60;9.75;;;9.10;99.90;;;;;;5014542;28;20037;-82
2021/10/19 02:40:50;;;;;;;24.40;10.43;;;9.00;99.90;;;;;;5014856;28;20482;-83
2021/10/19 02:43:16;;;;;;;20.30;9.18;;;9.10;99.90;;;;;;5030252;28;20021;-83
2021/10/19 02:45:41;;;;;;;23.33;9.45;;;9.10;99.90;;;;;;5014095;28;20105;-83
2021/10/19 02:48:07;;;;;;;24.75;10.40;;;9.00;99.90;;;;;;5014492;28;20026;-82
2021/10/19 02:50:33;;;;;;;24.90;10.43;;;9.00;99.90;;;;;;5030597;28;20068;-83
2021/10/19 02:52:58;;;;;;;20.75;9.13;;;9.00;99.90;;;;;;5030370;28;20022;-83
2021/10/19 02:55:24;;;;;;;20.23;9.38;;;8.90;99.90;;;;;;5013419;28;20133;-83
2021/10/19 02:57:49;;;;;;;21.15;9.40;;;8.90;99.90;;;;;;5013595;28;20046;-83
2021/10/19 03:00:16;;;;;;;23.67;9.80;;;8.90;99.90;;;;;;5013806;28;20030;-83
2021/10/19 03:02:42;;;;;;;20.23;8.88;;;8.90;99.90;;;;;;5013422;28;20029;-83
2021/10/19 03:05:08;;;;;;;17.90;8.50;;;8.90;99.90;;;;;;5014602;28;20371;-83
2021/10/19 03:07:34;;;;;;;18.17;8.25;;;8.90;99.90;;;;;;5014022;28;20022;-83
2021/10/19 03:10:00;;;;;;;15.27;8.02;;;8.90;99.90;;;;;;5013658;28;20339;-83
2021/10/19 03:12:25;;;;;;;17.45;8.02;;;8.90;99.90;;;;;;5014761;28;20022;-83
2021/10/19 03:14:51;;;;;;;18.05;8.60;;;8.90;99.90;;;;;;5012948;28;20021;-83
2021/10/19 03:17:17;;;;;;;18.00;8.38;;;8.90;99.90;;;;;;5014777;28;20022;-82
2021/10/19 03:19:42;;;;;;;18.33;8.32;;;8.90;99.90;;;;;;5013142;28;20117;-84
2021/10/19 03:22:08;;;;;;;18.52;8.32;;;8.80;99.90;;;;;;5013549;28;20022;-83
2021/10/19 03:24:34;;;;;;;14.20;7.75;;;8.90;99.90;;;;;;5012917;28;20057;-83
2021/10/19 03:26:59;;;;;;;18.48;7.80;;;8.90;99.90;;;;;;5013071;28;20379;-84
2021/10/19 03:29:25;;;;;;;14.57;7.40;;;8.90;99.90;;;;;;5013378;28;20124;-84
2021/10/19 03:31:51;;;;;;;15.98;8.43;;;9.00;99.90;;;;;;5013912;28;20029;-85
2021/10/19 03:34:17;;;;;;;16.77;8.02;;;9.00;99.90;;;;;;5014279;28;20030;-84
2021/10/19 03:36:43;;;;;;;16.20;8.32;;;9.00;99.90;;;;;;5013693;28;20367;-85
2021/10/19 03:39:09;;;;;;;15.23;7.78;;;8.90;99.90;;;;;;5016257;28;20160;-85
2021/10/19 03:41:34;;;;;;;15.73;7.82;;;9.00;99.90;;;;;;5018088;28;20064;-85
2021/10/19 03:44:00;;;;;;;15.70;7.95;;;9.00;99.90;;;;;;5016632;28;20061;-85
2021/10/19 03:46:26;;;;;;;15.27;7.75;;;9.00;99.90;;;;;;5016928;28;20022;-85
2021/10/19 03:48:51;;;;;;;14.35;7.30;;;9.00;99.90;;;;;;5017512;28;20030;-85
2021/10/19 03:51:17;;;;;;;13.30;7.45;;;9.00;99.90;;;;;;5017077;28;20018;-81
2021/10/19 03:53:43;;;;;;;14.27;7.18;;;9.00;99.90;;;;;;5017594;28;20057;-83
2021/10/19 03:56:08;;;;;;;13.85;7.35;;;9.00;99.90;;;;;;5017543;28;20430;-81
2021/10/19 03:58:34;;;;;;;13.43;6.88;;;9.00;99.90;;;;;;5017228;28;20033;-82
2021/10/19 04:01:00;;;;;;;12.48;6.60;;;9.00;99.90;;;;;;5017588;28;20045;-83
2021/10/19 04:03:25;;;;;;;14.05;6.97;;;9.00;99.90;;;;;;5017035;28;20065;-82
2021/10/19 04:05:52;;;;;;;15.02;6.70;;;9.00;99.90;;;;;;5016580;28;20093;-83
2021/10/19 04:08:18;;;;;;;12.80;6.78;;;9.00;99.90;;;;;;5017042;28;20026;-83
2021/10/19 04:10:43;;;;;;;13.00;7.43;;;9.00;99.90;;;;;;5016555;28;20367;-85
2021/10/19 04:13:09;;;;;;;12.05;6.88;;;9.00;99.90;;;;;;5016704;28;20105;-83
2021/10/19 04:15:35;;;;;;;12.30;6.63;;;9.00;99.90;;;;;;5017156;28;20025;-83
2021/10/19 04:18:01;;;;;;;12.38;6.35;;;9.00;99.90;;;;;;5017547;28;20041;-84
2021/10/19 04:20:27;;;;;;;12.27;6.80;;;9.00;99.90;;;;;;5016664;28;20018;-81
2021/10/19 04:22:52;;;;;;;13.35;7.22;;;9.00;99.90;;;;;;5015959;28;20029;-83
2021/10/19 04:25:18;;;;;;;13.15;7.35;;;9.10;99.90;;;;;;5016365;28;20370;-84
2021/10/19 04:27:44;;;;;;;13.90;6.85;;;9.10;99.90;;;;;;5015986;28;20069;-84
2021/10/19 04:30:10;;;;;;;11.73;6.78;;;9.10;99.90;;;;;;5017503;28;20077;-84
2021/10/19 04:32:35;;;;;;;14.70;7.28;;;9.10;99.90;;;;;;5017522;28;20030;-84
2021/10/19 04:35:01;;;;;;;12.95;6.60;;;9.10;99.90;;;;;;5016979;28;20030;-84
2021/10/19 04:37:26;;;;;;;11.52;6.85;;;9.20;99.90;;;;;;5017723;28;20193;-84
2021/10/19 04:39:52;;;;;;;12.18;6.80;;;9.20;99.90;;;;;;5032415;28;20034;-83
2021/10/19 04:42:18;;;;;;;12.32;6.90;;;9.20;99.90;;;;;;5033242;28;20018;-84
2021/10/19 04:44:45;;;;;;;12.63;6.43;;;9.20;99.90;;;;;;5032436;28;20026;-88
2021/10/19 04:47:11;;;;;;;12.55;6.80;;;9.20;99.90;;;;;;5032355;28;20018;-84
2021/10/19 04:49:38;;;;;;;11.98;6.70;;;9.20;99.90;;;;;;5032536;28;20417;-83
2021/10/19 04:52:04;;;;;;;11.63;6.32;;;9.20;99.90;;;;;;5032331;28;20602;-83
2021/10/19 04:54:30;;;;;;;11.32;6.25;;;9.20;99.90;;;;;;5016972;28;20025;-83
2021/10/19 04:56:55;;;;;;;12.95;7.28;;;9.20;99.90;;;;;;5031782;28;20053;-84
2021/10/19 04:59:21;;;;;;;16.20;7.50;;;9.20;99.90;;;;;;5032430;28;20144;-83
2021/10/19 05:01:47;;;;;;;12.40;7.20;;;9.20;99.90;;;;;;5032258;28;20119;-83
2021/10/19 05:04:15;;;;;;;12.57;6.50;;;9.20;99.90;;;;;;5032423;28;20360;-83
2021/10/19 05:06:41;;;;;;;13.45;7.38;;;9.30;99.90;;;;;;5016947;28;20109;-82
2021/10/19 05:09:07;;;;;;;12.25;7.22;;;9.20;99.90;;;;;;5031742;28;20600;-81
2021/10/19 05:11:33;;;;;;;10.65;6.60;;;9.20;99.90;;;;;;5032559;28;20021;-82
2021/10/19 05:13:58;;;;;;;14.20;6.80;;;9.20;99.90;;;;;;5031831;28;20026;-82
2021/10/19 05:16:24;;;;;;;13.77;8.10;;;9.30;99.90;;;;;;5032327;28;20092;-82
2021/10/19 05:18:49;;;;;;;13.02;7.45;;;9.30;99.90;;;;;;5016231;28;20498;-83
2021/10/19 05:21:15;;;;;;;12.85;6.72;;;9.30;99.90;;;;;;5032366;28;20025;-83
2021/10/19 05:23:41;;;;;;;13.13;7.47;;;9.30;99.90;;;;;;5016699;28;20065;-82
2021/10/19 05:26:06;;;;;;;16.35;7.72;;;9.30;99.90;;;;;;5031620;28;20088;-83
2021/10/19 05:28:32;;;;;;;14.93;8.40;;;9.30;99.90;;;;;;5032020;28;20076;-83
2021/10/19 05:30:58;;;;;;;15.65;8.38;;;9.30;99.90;;;;;;5031553;28;20026;-83
2021/10/19 05:33:24;;;;;;;14.93;8.20;;;9.30;99.90;;;;;;5016570;28;20022;-83
2021/10/19 05:35:51;;;;;;;15.55;7.72;;;9.30;99.90;;;;;;5016586;28;20026;-83
2021/10/19 05:38:17;;;;;;;15.65;7.38;;;9.30;99.90;;;;;;5032188;28;20125;-83
2021/10/19 05:40:43;;;;;;;16.27;8.10;;;9.30;99.90;;;;;;5031479;28;20053;-82
2021/10/19 05:43:09;;;;;;;16.48;8.40;;;9.30;99.90;;;;;;5031739;28;20029;-83
2021/10/19 05:45:34;;;;;;;16.30;8.48;;;9.30;99.90;;;;;;5032177;28;20467;-82
2021/10/19 05:48:00;;;;;;;16.73;8.55;;;9.40;99.90;;;;;;5031735;28;20108;-83
2021/10/19 05:50:26;;;;;;;12.90;7.32;;;9.30;99.90;;;;;;5031749;28;20030;-83
2021/10/19 05:52:52;;;;;;;14.52;7.15;;;9.30;99.90;;;;;;5015384;28;20080;-83
2021/10/19 05:55:17;;;;;;;17.42;8.68;;;9.30;99.90;;;;;;5015557;28;20057;-83
2021/10/19 05:57:43;;;;;;;15.07;8.10;;;9.30;99.90;;;;;;5031236;28;20026;-85
2021/10/19 06:00:09;;;;;;;16.70;8.13;;;9.30;99.90;;;;;;5030677;28;20494;-84
2021/10/19 06:02:35;;;;;;;15.88;7.95;;;9.30;99.90;;;;;;5015838;28;20026;-83
2021/10/19 06:05:03;;;;;;;18.90;8.43;;;9.30;99.90;;;;;;5030844;28;20026;-81
2021/10/19 06:07:29;;;;;;;13.88;6.97;;;9.30;99.90;;;;;;5031353;28;20125;-82
2021/10/19 06:09:55;;;;;;;14.07;7.72;;;9.30;99.90;;;;;;5031096;28;20135;-83
2021/10/19 06:12:20;;;;;;;14.38;8.05;;;9.40;99.90;;;;;;5031261;28;20048;-83
2021/10/19 06:14:46;;;;;;;15.02;8.13;;;9.40;99.90;;;;;;5031304;28;20073;-81
2021/10/19 06:17:12;;;;;;;16.15;8.27;;;9.40;99.90;;;;;;5030892;28;20026;-83
2021/10/19 06:19:37;;;;;;;15.07;8.00;;;9.40;99.90;;;;;;5031679;28;20040;-83
2021/10/19 06:22:03;;;;;;;14.77;8.52;;;9.50;99.90;;;;;;5030644;28;20107;-82
2021/10/19 06:24:29;;;;;;;13.35;7.60;;;9.50;99.90;;;;;;5031147;28;20037;-83
2021/10/19 06:26:55;;;;;;;16.35;8.38;;;9.50;99.90;;;;;;5031112;28;20034;-83
2021/10/19 06:29:20;;;;;;;15.65;8.05;;;9.50;99.90;;;;;;5031204;28;20033;-83
2021/10/19 06:31:46;;;;;;;14.50;8.25;;;9.50;99.90;;;;;;5030620;28;20080;-83
2021/10/19 06:34:13;;;;;;;17.23;8.20;;;9.50;99.90;;;;;;5030095;28;20032;-83
2021/10/19 06:36:39;;;;;;;15.57;8.85;;;9.50;99.90;;;;;;5015294;28;20026;-82
2021/10/19 06:39:05;;;;;;;18.27;9.07;;;9.50;99.90;;;;;;5030213;28;20030;-82
2021/10/19 06:41:31;;;;;;;16.08;8.43;;;9.50;99.90;;;;;;5014881;28;20462;-84
2021/10/19 06:43:57;;;;;;;17.60;9.35;;;9.50;99.90;;;;;;5030414;28;20030;-85
2021/10/19 06:46:23;;;;;;;15.60;8.18;;;9.50;99.90;;;;;;5030615;28;20025;-85
2021/10/19 06:48:49;;;;;;;16.45;8.55;;;9.60;99.90;;;;;;5031199;28;20029;-85
2021/10/19 06:51:14;;;;;;;16.48;8.93;;;9.60;99.90;;;;;;5030108;28;20030;-84
2021/10/19 06:53:40;;;;;;;15.32;8.25;;;9.70;99.90;;;;;;5030730;28;20025;-84
2021/10/19 06:56:06;;;;;;;18.63;9.43;;;9.70;99.90;;;;;;5029618;28;20372;-85
2021/10/19 06:58:31;;;;;;;16.88;8.70;;;9.70;99.90;;;;;;5030263;28;20064;-85
2021/10/19 07:00:59;;;;;;;18.55;9.40;;;9.80;99.90;;;;;;5014300;28;20030;-83
2021/10/19 07:03:26;;;;;;;16.80;8.73;;;9.80;99.90;;;;;;5030452;28;20022;-82
2021/10/19 07:05:52;;;;;;;18.38;9.20;;;9.80;99.90;;;;;;5030248;28;20034;-91
2021/10/19 07:08:18;;;;;;;16.88;8.70;;;9.90;99.90;;;;;;5030299;28;20040;-83
2021/10/19 07:10:44;;;;;;;17.35;8.65;;;9.90;99.90;;;;;;5030153;28;20394;-83
2021/10/19 07:13:09;;;;;;;17.20;9.10;;;9.90;99.90;;;;;;5029053;28;20524;-83
2021/10/19 07:15:35;;;;;;;18.33;10.35;;;9.90;99.90;;;;;;5014529;28;20030;-82
2021/10/19 07:18:02;;;;;;;18.48;9.73;;;10.00;99.90;;;;;;5013263;28;20471;-83
2021/10/19 07:20:28;;;;;;;19.08;9.70;;;10.00;99.90;;;;;;5014288;28;20109;-82
2021/10/19 07:22:55;;;;;;;16.90;8.30;;;10.00;99.90;;;;;;5029898;28;20136;-83
2021/10/19 07:25:21;;;;;;;16.33;8.48;;;10.10;99.90;;;;;;5029968;28;20032;-83
2021/10/19 07:27:46;;;;;;;16.90;8.90;;;10.20;99.90;;;;;;5014483;28;20026;-83
2021/10/19 07:30:13;;;;;;;14.20;7.70;;;10.20;99.90;;;;;;5029132;28;20460;-82
2021/10/19 07:32:39;;;;;;;14.77;8.30;;;10.10;99.90;;;;;;5014722;28;20085;-84
2021/10/19 07:35:05;;;;;;;18.50;8.48;;;10.20;99.90;;;;;;5029543;28;20022;-83
2021/10/19 07:37:42;;;;;;;14.38;8.18;;;10.20;99.90;;;;;;5029927;28;20029;-83
2021/10/19 07:40:08;;;;;;;14.38;7.88;;;10.20;99.90;;;;;;5029021;28;20125;-83
2021/10/19 07:42:35;;;;;;;18.58;8.02;;;10.20;99.90;;;;;;5029715;28;20525;-82
2021/10/19 07:45:06;;;;;;;14.80;8.05;;;10.30;99.90;;;;;;5029240;28;20046;-83
2021/10/19 07:47:31;;;;;;;19.23;8.95;;;10.40;99.90;;;;;;5030034;28;20037;-83
2021/10/19 07:49:57;;;;;;;18.92;9.20;;;10.40;99.90;;;;;;5029089;28;20445;-84
2021/10/19 07:52:23;;;;;;;17.90;9.88;;;10.30;99.90;;;;;;5014147;28;20101;-85
2021/10/19 07:54:48;;;;;;;19.77;9.07;;;10.40;99.90;;;;;;5029776;28;20398;-86
2021/10/19 07:57:14;;;;;;;17.85;7.93;;;10.40;99.90;;;;;;5013986;28;20184;-84
2021/10/19 07:59:40;;;;;;;19.88;9.57;;;10.50;99.90;;;;;;5029524;28;20541;-83
2021/10/19 08:02:06;;;;;;;19.17;8.85;;;10.40;99.90;;;;;;5029117;28;20030;-84
2021/10/19 08:04:31;;;;;;;18.23;9.07;;;10.50;99.90;;;;;;5014076;28;20036;-83
2021/10/19 08:06:58;;;;;;;13.80;8.98;;;10.50;99.90;;;;;;5028974;28;20036;-84
2021/10/19 08:09:24;;;;;;;15.32;9.02;;;10.50;99.90;;;;;;5029586;28;20052;-82
2021/10/19 08:11:49;;;;;;;17.98;9.48;;;10.50;99.90;;;;;;5029198;28;20523;-83
2021/10/19 08:14:15;;;;;;;17.30;8.48;;;10.40;99.90;;;;;;5028911;28;20237;-83
2021/10/19 08:16:41;;;;;;;17.35;9.15;;;10.50;99.90;;;;;;5013716;28;20108;-84
2021/10/19 08:19:06;;;;;;;15.80;8.65;;;10.50;99.90;;;;;;5013674;28;20085;-83
2021/10/19 08:21:32;;;;;;;15.77;8.90;;;10.50;99.90;;;;;;5028861;28;20081;-84
2021/10/19 08:23:59;;;;;;;18.50;8.88;;;10.50;99.90;;;;;;5014853;28;20026;-85
2021/10/19 08:26:30;;;;;;;20.60;9.18;;;10.50;99.90;;;;;;5033120;28;20037;-84
2021/10/19 08:28:57;;;;;;;16.90;9.25;;;10.50;99.90;;;;;;5033415;28;20058;-83
2021/10/19 08:31:22;;;;;;;19.20;8.77;;;10.60;99.90;;;;;;5032863;28;20471;-85
2021/10/19 08:33:50;;;;;;;18.17;9.50;;;10.60;99.90;;;;;;5032799;28;20032;-86
2021/10/19 08:36:16;;;;;;;17.27;9.30;;;10.70;99.90;;;;;;5032493;28;20172;-84
2021/10/19 08:38:43;;;;;;;16.35;9.93;;;10.70;99.90;;;;;;5032711;28;20124;-84
2021/10/19 08:41:10;;;;;;;16.75;9.07;;;10.80;99.90;;;;;;5031878;28;20173;-84
2021/10/19 08:43:38;;;;;;;18.52;9.82;;;10.90;99.90;;;;;;5016106;28;20128;-84
2021/10/19 08:46:08;;;;;;;18.52;9.15;;;10.90;99.90;;;;;;5032491;28;20026;-85
2021/10/19 08:48:34;;;;;;;18.98;9.50;;;11.00;99.90;;;;;;5032781;28;20034;-85
2021/10/19 08:50:59;;;;;;;18.13;9.13;;;11.00;99.90;;;;;;5032383;28;20038;-85
2021/10/19 08:53:26;;;;;;;15.60;8.55;;;11.00;99.90;;;;;;5032994;28;20081;-83
2021/10/19 08:55:52;;;;;;;16.40;8.48;;;11.10;99.90;;;;;;5017270;28;20056;-83
2021/10/19 08:58:18;;;;;;;14.05;8.60;;;11.20;99.90;;;;;;5032218;28;20046;-85
2021/10/19 09:00:43;;;;;;;14.30;8.73;;;11.20;99.90;;;;;;5033118;28;20051;-85
2021/10/19 09:03:09;;;;;;;16.70;8.40;;;11.20;99.90;;;;;;5032184;28;20025;-84
2021/10/19 09:05:35;;;;;;;15.13;8.90;;;11.30;99.90;;;;;;5016410;28;20064;-83
2021/10/19 09:08:05;;;;;;;16.75;8.40;;;11.30;99.90;;;;;;5016542;28;20041;-86
2021/10/19 09:10:36;;;;;;;16.80;8.35;;;11.30;99.90;;;;;;5017895;28;20045;-86
2021/10/19 09:13:07;;;;;;;13.63;7.72;;;11.40;99.90;;;;;;5030955;28;20116;-81
2021/10/19 09:15:35;;;;;;;15.85;8.32;;;11.50;99.90;;;;;;5015775;28;20041;-80
2021/10/19 09:18:10;;;;;;;12.95;7.35;;;11.50;99.90;;;;;;5030031;28;20446;-83
2021/10/19 09:20:42;;;;;;;12.65;7.80;;;11.70;99.90;;;;;;5014288;28;20033;-83
2021/10/19 09:23:09;;;;;;;16.37;9.40;;;11.70;99.90;;;;;;5014471;28;20417;-85
2021/10/19 09:25:42;;;;;;;16.67;8.70;;;11.80;99.90;;;;;;5030952;28;20341;-83
2021/10/19 09:28:13;;;;;;;17.17;9.10;;;11.80;99.90;;;;;;5030111;28;20038;-79
2021/10/19 09:30:41;;;;;;;;;;;11.80;99.90;;;;;;5015738;28;20037;-79
2021/10/19 09:33:11;;;;;;;15.45;7.45;;;11.90;99.90;;;;;;5012817;28;19936;-87
2021/10/19 09:35:36;;;;;;;16.65;8.85;;;11.90;99.90;;;;;;5030005;28;20029;-81
2021/10/19 09:38:12;;;;;;;13.90;8.68;;;12.00;99.90;;;;;;5013565;28;20364;-82
2021/10/19 09:40:41;;;;;;;18.13;8.75;;;12.00;99.90;;;;;;5031140;28;20364;-79
2021/10/19 09:43:12;;;;;;;15.70;8.60;;;12.10;99.90;;;;;;5014218;28;20168;-79
2021/10/19 09:45:44;;;;;;;18.55;9.15;;;12.20;99.90;;;;;;5015654;28;20144;-80
2021/10/19 09:48:17;;;;;;;15.65;7.82;;;12.20;99.90;;;;;;5013893;28;20414;-77
2021/10/19 09:50:45;;;;;;;15.30;8.73;;;12.40;99.90;;;;;;5013648;28;20550;-79
2021/10/19 09:53:13;;;;;;;14.45;7.90;;;12.40;99.90;;;;;;5013513;28;20033;-76
2021/10/19 09:55:41;;;;;;;15.95;8.98;;;12.40;99.90;;;;;;5013315;28;20050;-80
2021/10/19 09:58:07;;;;;;;14.93;8.60;;;12.50;99.90;;;;;;5029911;28;20096;-79
2021/10/19 10:00:33;;;;;;;14.82;8.38;;;12.60;99.90;;;;;;5015190;28;20030;-78
2021/10/19 10:03:05;;;;;;;18.02;8.20;;;12.70;99.90;;;;;;5014249;28;20057;-85
2021/10/19 10:05:32;;;;;;;14.23;7.88;;;12.70;99.90;;;;;;5002647;28;20034;-84
2021/10/19 10:07:59;;;;;;;15.02;8.40;;;12.70;99.90;;;;;;5014500;28;20041;-86
2021/10/19 10:10:25;;;;;;;15.27;8.23;;;12.70;99.90;;;;;;5014447;28;20022;-82
2021/10/19 10:13:06;;;;;;;13.27;8.02;;;12.80;99.90;;;;;;5014395;28;20068;-82
2021/10/19 10:15:34;;;;;;;12.50;7.20;;;12.80;99.90;;;;;;5014727;28;20057;-82
2021/10/19 10:18:05;;;;;;;12.20;7.00;;;12.80;99.90;;;;;;5030256;28;20045;-82
2021/10/19 10:20:36;;;;;;;13.10;7.22;;;12.90;99.90;;;;;;5030511;28;20034;-82
2021/10/19 10:23:21;;;;;;;17.58;7.90;;;12.90;99.90;;;;;;4994543;28;20034;-88
2021/10/19 10:25:49;;;;;;;15.25;7.70;;;12.90;99.90;;;;;;5004345;28;20037;-84
2021/10/19 10:28:30;;;;;;;11.88;7.05;;;13.00;99.90;;;;;;5014630;28;20069;-85
2021/10/19 10:30:58;;;;;;;11.38;6.80;;;13.10;99.90;;;;;;5015207;28;20088;-84
2021/10/19 10:33:38;;;;;;;14.10;6.93;;;13.20;99.90;;;;;;5013525;28;20022;-86
2021/10/19 10:36:14;;;;;;;9.77;5.85;;;13.30;99.90;;;;;;5013680;28;20029;-86
2021/10/19 10:38:57;;;;;;;12.27;6.50;;;13.40;99.90;;;;;;5014173;28;20038;-85
2021/10/19 10:41:23;;;;;;;15.02;6.72;;;13.40;99.90;;;;;;5014372;28;20026;-86
2021/10/19 10:43:59;;;;;;;11.23;6.20;;;13.40;99.90;;;;;;5014720;28;20106;-86
2021/10/19 10:46:25;;;;;;;12.38;6.20;;;13.40;99.90;;;;;;5012837;28;20026;-87
2021/10/19 10:48:54;;;;;;;11.68;5.65;;;13.50;99.90;;;;;;5030165;28;20085;-85
2021/10/19 10:51:32;;;;;;;14.07;5.93;;;13.50;99.90;;;;;;5014423;28;20022;-83
2021/10/19 10:53:58;;;;;;;8.90;5.57;;;13.60;99.90;;;;;;5013330;28;20057;-86
2021/10/19 10:56:25;;;;;;;14.23;6.22;;;13.70;99.90;;;;;;5013714;28;20045;-87
2021/10/19 10:58:51;;;;;;;9.30;5.47;;;13.70;99.90;;;;;;5014089;28;20483;-88
2021/10/19 11:01:27;;;;;;;11.80;5.50;;;13.70;99.90;;;;;;5013161;28;20026;-87
2021/10/19 11:04:10;;;;;;;11.13;5.03;;;13.80;99.90;;;;;;5014342;28;20037;-88
2021/10/19 11:06:39;;;;;;;10.30;4.97;;;13.80;99.90;;;;;;5029814;28;20025;-87
2021/10/19 11:09:13;;;;;;;9.13;4.90;;;13.90;99.90;;;;;;5013190;28;20030;-89
2021/10/19 11:11:41;;;;;;;11.35;5.00;;;13.90;99.90;;;;;;5014148;28;20029;-88
2021/10/19 11:14:15;;;;;;;9.00;4.57;;;14.00;99.90;;;;;;5029184;28;20029;-87
2021/10/19 11:16:46;;;;;;;8.65;4.78;;;14.00;99.90;;;;;;5013159;28;20504;-88
2021/10/19 11:19:15;;;;;;;8.13;4.88;;;14.10;99.90;;;;;;5027987;28;20390;-83
2021/10/19 11:21:41;;;;;;;11.20;4.93;;;14.10;99.90;;;;;;5010428;28;20379;-84
2021/10/19 11:24:07;;;;;;;7.68;4.20;;;14.10;99.80;;;;;;5028466;28;20030;-83
2021/10/19 11:26:34;;;;;;;9.02;4.57;;;14.20;99.90;;;;;;5013516;28;20037;-88
2021/10/19 11:29:00;;;;;;;7.07;4.38;;;14.20;99.90;;;;;;5012819;28;20064;-85
2021/10/19 11:31:28;;;;;;;8.00;4.22;;;14.40;99.90;;;;;;5013337;28;20080;-80
2021/10/19 11:33:54;;;;;;;6.13;4.00;;;14.40;99.80;;;;;;5012102;28;20030;-80
2021/10/19 11:36:20;;;;;;;4.85;3.53;;;14.50;99.70;;;;;;5028096;28;20030;-84
2021/10/19 11:38:58;;;;;;;6.40;3.92;;;14.50;99.40;;;;;;5012119;28;20038;-83
2021/10/19 11:41:30;;;;;;;6.68;3.78;;;14.70;99.00;;;;;;5028411;28;20026;-83
2021/10/19 11:43:58;;;;;;;9.25;3.85;;;14.70;99.00;;;;;;5012574;28;20077;-83
2021/10/19 11:46:30;;;;;;;6.55;3.83;;;14.80;99.30;;;;;;5012802;28;20037;-82
2021/10/19 11:49:01;;;;;;;6.25;3.92;;;14.90;99.10;;;;;;5012881;28;20092;-87
2021/10/19 11:51:28;;;;;;;6.85;4.00;;;15.10;99.00;;;;;;5013458;28;20129;-91
2021/10/19 11:53:56;;;;;;;8.48;3.75;;;15.20;98.70;;;;;;5013496;28;20029;-92
2021/10/19 11:56:22;;;;;;;5.15;3.40;;;15.30;98.20;;;;;;5010965;28;20052;-77
2021/10/19 11:58:48;;;;;;;7.15;3.67;;;15.40;98.00;;;;;;5012025;28;20386;-79
2021/10/19 12:01:15;;;;;;;8.27;3.10;;;15.60;97.60;;;;;;5015136;28;20022;-80
2021/10/19 12:03:40;;;;;;;7.05;3.22;;;15.80;97.20;;;;;;5032236;28;20021;-77
2021/10/19 12:06:12;;;;;;;6.95;3.47;;;16.10;96.80;;;;;;5031897;28;20364;-77
2021/10/19 12:08:42;;;;;;;4.72;2.92;;;16.30;95.80;;;;;;5015795;28;20046;-79
2021/10/19 12:11:10;;;;;;;6.18;2.97;;;16.30;95.80;;;;;;5016518;28;20105;-77
2021/10/19 12:13:39;;;;;;;4.95;2.88;;;16.30;94.50;;;;;;5015949;28;20406;-82
2021/10/19 12:16:09;;;;;;;5.60;2.65;;;16.30;94.60;;;;;;5015964;28;20077;-82
2021/10/19 12:18:43;;;;;;;3.40;2.58;;;16.40;94.00;;;;;;5016133;28;20116;-79
2021/10/19 12:21:10;;;;;;;4.22;2.78;;;16.40;93.80;;;;;;5015901;28;20454;-79
2021/10/19 12:23:36;;;;;;;4.43;2.33;;;16.40;93.70;;;;;;5015555;28;20076;-80
2021/10/19 12:26:07;;;;;;;4.15;2.40;;;16.50;93.50;;;;;;5017004;28;20117;-78
2021/10/19 12:28:34;;;;;;;7.32;2.63;;;16.40;93.20;;;;;;5015628;28;20065;-79
2021/10/19 12:31:00;;;;;;;7.22;2.92;;;16.40;93.10;;;;;;5015641;28;20053;-78
2021/10/19 12:33:28;;;;;;;4.28;2.33;;;16.40;92.40;;;;;;5014738;28;20514;-79
2021/10/19 12:36:05;;;;;;;4.47;2.35;;;16.50;92.60;;;;;;5015345;28;20026;-80
2021/10/19 12:38:35;;;;;;;4.55;2.53;;;16.50;92.00;;;;;;5016622;28;20041;-82
2021/10/19 12:41:20;;;;;;;4.22;2.20;;;16.50;91.90;;;;;;5003525;28;20026;-80
2021/10/19 12:43:48;;;;;;;3.22;1.92;;;16.60;91.20;;;;;;5031809;28;20022;-82